sensor_id;sensor_type;location;lat;lon;timestamp;P1;durP1;ratioP1;P2;durP2;ratioP2
3299;SDS011;1662;49.310;8.134;2023-05-07T00:00:09;3.53;;;3.33;;
3299;SDS011;1662;49.310;8.134;2023-05-07T00:02:36;3.30;;;3.00;;
3299;SDS011;1662;49.310;8.134;2023-05-07T00:05:02;3.40;;;3.20;;
3299;SDS011;1662;49.310;8.134;2023-05-07T00:07:34;3.10;;;3.00;;
3299;SDS011;1662;49.310;8.134;2023-05-07T00:10:00;3.57;;;3.40;;
3299;SDS011;1662;49.310;8.134;2023-05-07T00:12:25;3.10;;;2.90;;
3299;SDS011;1662;49.310;8.134;2023-05-07T00:14:51;3.40;;;3.20;;
3299;SDS011;1662;49.310;8.134;2023-05-07T00:17:16;5.17;;;3.20;;
3299;SDS011;1662;49.310;8.134;2023-05-07T00:19:45;3.40;;;3.20;;
3299;SDS011;1662;49.310;8.134;2023-05-07T00:22:11;3.70;;;3.40;;
3299;SDS011;1662;49.310;8.134;2023-05-07T00:24:37;3.17;;;3.07;;
3299;SDS011;1662;49.310;8.134;2023-05-07T00:27:02;3.23;;;3.00;;
3299;SDS011;1662;49.310;8.134;2023-05-07T00:29:28;3.17;;;2.97;;
3299;SDS011;1662;49.310;8.134;2023-05-07T00:31:53;3.40;;;3.20;;
3299;SDS011;1662;49.310;8.134;2023-05-07T00:34:19;3.37;;;3.10;;
3299;SDS011;1662;49.310;8.134;2023-05-07T00:36:45;3.10;;;2.97;;
3299;SDS011;1662;49.310;8.134;2023-05-07T00:39:10;5.33;;;3.20;;
3299;SDS011;1662;49.310;8.134;2023-05-07T00:41:36;3.40;;;3.20;;
3299;SDS011;1662;49.310;8.134;2023-05-07T00:44:02;2.90;;;2.70;;
3299;SDS011;1662;49.310;8.134;2023-05-07T00:46:27;3.33;;;3.13;;
3299;SDS011;1662;49.310;8.134;2023-05-07T00:48:55;3.20;;;3.00;;
3299;SDS011;1662;49.310;8.134;2023-05-07T00:51:21;3.07;;;2.97;;
3299;SDS011;1662;49.310;8.134;2023-05-07T00:53:48;2.93;;;2.77;;
3299;SDS011;1662;49.310;8.134;2023-05-07T00:56:14;3.17;;;2.90;;
3299;SDS011;1662;49.310;8.134;2023-05-07T00:58:40;4.47;;;3.40;;
3299;SDS011;1662;49.310;8.134;2023-05-07T01:01:08;3.43;;;3.23;;
3299;SDS011;1662;49.310;8.134;2023-05-07T01:03:34;3.00;;;2.90;;
3299;SDS011;1662;49.310;8.134;2023-05-07T01:06:00;3.03;;;2.93;;
3299;SDS011;1662;49.310;8.134;2023-05-07T01:08:27;4.40;;;3.27;;
3299;SDS011;1662;49.310;8.134;2023-05-07T01:10:55;2.97;;;2.77;;
3299;SDS011;1662;49.310;8.134;2023-05-07T01:13:22;3.00;;;2.90;;
3299;SDS011;1662;49.310;8.134;2023-05-07T01:15:48;3.60;;;3.30;;
3299;SDS011;1662;49.310;8.134;2023-05-07T01:18:15;3.10;;;2.90;;
3299;SDS011;1662;49.310;8.134;2023-05-07T01:20:41;2.97;;;2.77;;
3299;SDS011;1662;49.310;8.134;2023-05-07T01:23:07;3.00;;;2.90;;
3299;SDS011;1662;49.310;8.134;2023-05-07T01:25:34;2.77;;;2.67;;
3299;SDS011;1662;49.310;8.134;2023-05-07T01:28:00;3.27;;;3.07;;
3299;SDS011;1662;49.310;8.134;2023-05-07T01:30:26;2.90;;;2.80;;
3299;SDS011;1662;49.310;8.134;2023-05-07T01:35:29;2.87;;;2.67;;
3299;SDS011;1662;49.310;8.134;2023-05-07T01:37:59;4.03;;;2.93;;
3299;SDS011;1662;49.310;8.134;2023-05-07T01:40:25;2.53;;;2.13;;
3299;SDS011;1662;49.310;8.134;2023-05-07T01:42:52;3.20;;;3.10;;
3299;SDS011;1662;49.310;8.134;2023-05-07T01:45:19;3.57;;;3.27;;
3299;SDS011;1662;49.310;8.134;2023-05-07T01:47:45;3.30;;;3.00;;
3299;SDS011;1662;49.310;8.134;2023-05-07T01:50:11;3.50;;;3.20;;
3299;SDS011;1662;49.310;8.134;2023-05-07T01:52:38;3.33;;;3.03;;
3299;SDS011;1662;49.310;8.134;2023-05-07T01:55:04;3.03;;;2.70;;
3299;SDS011;1662;49.310;8.134;2023-05-07T01:57:31;2.93;;;2.83;;
3299;SDS011;1662;49.310;8.134;2023-05-07T01:59:56;3.47;;;3.27;;
3299;SDS011;1662;49.310;8.134;2023-05-07T02:02:22;2.50;;;2.40;;
3299;SDS011;1662;49.310;8.134;2023-05-07T02:04:50;2.90;;;2.70;;
3299;SDS011;1662;49.310;8.134;2023-05-07T02:07:15;3.20;;;2.93;;
3299;SDS011;1662;49.310;8.134;2023-05-07T02:09:41;3.00;;;2.90;;
3299;SDS011;1662;49.310;8.134;2023-05-07T02:12:07;3.00;;;2.90;;
3299;SDS011;1662;49.310;8.134;2023-05-07T02:14:32;3.00;;;2.80;;
3299;SDS011;1662;49.310;8.134;2023-05-07T02:16:58;3.17;;;2.97;;
3299;SDS011;1662;49.310;8.134;2023-05-07T02:19:23;2.80;;;2.50;;
3299;SDS011;1662;49.310;8.134;2023-05-07T02:21:51;2.70;;;2.60;;
3299;SDS011;1662;49.310;8.134;2023-05-07T02:24:21;3.13;;;3.03;;
3299;SDS011;1662;49.310;8.134;2023-05-07T02:26:46;3.50;;;3.20;;
3299;SDS011;1662;49.310;8.134;2023-05-07T02:29:12;2.73;;;2.63;;
3299;SDS011;1662;49.310;8.134;2023-05-07T02:31:37;2.93;;;2.70;;
3299;SDS011;1662;49.310;8.134;2023-05-07T02:34:03;3.10;;;3.00;;
3299;SDS011;1662;49.310;8.134;2023-05-07T02:36:29;3.10;;;2.83;;
3299;SDS011;1662;49.310;8.134;2023-05-07T02:38:54;3.03;;;2.83;;
3299;SDS011;1662;49.310;8.134;2023-05-07T02:41:20;3.00;;;2.90;;
3299;SDS011;1662;49.310;8.134;2023-05-07T02:43:46;3.33;;;3.20;;
3299;SDS011;1662;49.310;8.134;2023-05-07T02:46:11;2.70;;;2.60;;
3299;SDS011;1662;49.310;8.134;2023-05-07T02:48:40;2.77;;;2.67;;
3299;SDS011;1662;49.310;8.134;2023-05-07T02:51:06;2.67;;;2.57;;
3299;SDS011;1662;49.310;8.134;2023-05-07T02:53:31;3.27;;;2.50;;
3299;SDS011;1662;49.310;8.134;2023-05-07T02:55:57;2.53;;;2.43;;
3299;SDS011;1662;49.310;8.134;2023-05-07T02:58:24;2.83;;;2.73;;
3299;SDS011;1662;49.310;8.134;2023-05-07T03:00:50;2.93;;;2.70;;
3299;SDS011;1662;49.310;8.134;2023-05-07T03:03:16;2.73;;;2.63;;
3299;SDS011;1662;49.310;8.134;2023-05-07T03:05:42;2.77;;;2.60;;
3299;SDS011;1662;49.310;8.134;2023-05-07T03:08:07;2.90;;;2.70;;
3299;SDS011;1662;49.310;8.134;2023-05-07T03:10:34;2.50;;;2.40;;
3299;SDS011;1662;49.310;8.134;2023-05-07T03:13:00;2.77;;;2.57;;
3299;SDS011;1662;49.310;8.134;2023-05-07T03:15:26;2.70;;;2.60;;
3299;SDS011;1662;49.310;8.134;2023-05-07T03:17:51;2.87;;;2.77;;
3299;SDS011;1662;49.310;8.134;2023-05-07T03:20:17;3.03;;;2.83;;
3299;SDS011;1662;49.310;8.134;2023-05-07T03:22:45;2.80;;;2.60;;
3299;SDS011;1662;49.310;8.134;2023-05-07T03:25:11;2.83;;;2.63;;
3299;SDS011;1662;49.310;8.134;2023-05-07T03:27:37;3.13;;;3.00;;
3299;SDS011;1662;49.310;8.134;2023-05-07T03:30:03;2.83;;;2.73;;
3299;SDS011;1662;49.310;8.134;2023-05-07T03:32:29;2.77;;;2.67;;
3299;SDS011;1662;49.310;8.134;2023-05-07T03:34:54;3.00;;;2.80;;
3299;SDS011;1662;49.310;8.134;2023-05-07T03:37:20;2.90;;;2.80;;
3299;SDS011;1662;49.310;8.134;2023-05-07T03:39:46;3.20;;;3.00;;
3299;SDS011;1662;49.310;8.134;2023-05-07T03:42:12;3.23;;;3.13;;
3299;SDS011;1662;49.310;8.134;2023-05-07T03:44:38;2.70;;;2.60;;
3299;SDS011;1662;49.310;8.134;2023-05-07T03:47:03;3.17;;;2.97;;
3299;SDS011;1662;49.310;8.134;2023-05-07T03:49:32;2.80;;;2.50;;
3299;SDS011;1662;49.310;8.134;2023-05-07T03:51:58;2.93;;;2.73;;
3299;SDS011;1662;49.310;8.134;2023-05-07T03:54:23;2.60;;;2.50;;
3299;SDS011;1662;49.310;8.134;2023-05-07T03:56:49;3.03;;;2.80;;
3299;SDS011;1662;49.310;8.134;2023-05-07T03:59:15;3.00;;;2.80;;
3299;SDS011;1662;49.310;8.134;2023-05-07T04:01:40;3.20;;;2.90;;
3299;SDS011;1662;49.310;8.134;2023-05-07T04:04:06;3.20;;;2.87;;
3299;SDS011;1662;49.310;8.134;2023-05-07T04:06:31;2.97;;;2.87;;
3299;SDS011;1662;49.310;8.134;2023-05-07T04:08:57;3.23;;;3.03;;
3299;SDS011;1662;49.310;8.134;2023-05-07T04:11:26;2.77;;;2.67;;
3299;SDS011;1662;49.310;8.134;2023-05-07T04:13:52;2.60;;;2.50;;
3299;SDS011;1662;49.310;8.134;2023-05-07T04:16:17;2.90;;;2.70;;
3299;SDS011;1662;49.310;8.134;2023-05-07T04:18:43;3.13;;;2.37;;
3299;SDS011;1662;49.310;8.134;2023-05-07T04:21:15;3.27;;;2.77;;
3299;SDS011;1662;49.310;8.134;2023-05-07T04:23:45;2.60;;;2.50;;
3299;SDS011;1662;49.310;8.134;2023-05-07T04:26:14;2.67;;;2.53;;
3299;SDS011;1662;49.310;8.134;2023-05-07T04:28:41;2.90;;;2.80;;
3299;SDS011;1662;49.310;8.134;2023-05-07T04:31:06;2.60;;;2.50;;
3299;SDS011;1662;49.310;8.134;2023-05-07T04:33:32;2.80;;;2.70;;
3299;SDS011;1662;49.310;8.134;2023-05-07T04:36:02;2.83;;;2.67;;
3299;SDS011;1662;49.310;8.134;2023-05-07T04:38:29;2.67;;;2.57;;
3299;SDS011;1662;49.310;8.134;2023-05-07T04:40:56;2.70;;;2.60;;
3299;SDS011;1662;49.310;8.134;2023-05-07T04:43:22;3.20;;;3.10;;
3299;SDS011;1662;49.310;8.134;2023-05-07T04:45:49;3.23;;;2.60;;
3299;SDS011;1662;49.310;8.134;2023-05-07T04:48:16;3.37;;;2.57;;
3299;SDS011;1662;49.310;8.134;2023-05-07T04:50:44;2.70;;;2.60;;
3299;SDS011;1662;49.310;8.134;2023-05-07T04:53:12;3.00;;;2.70;;
3299;SDS011;1662;49.310;8.134;2023-05-07T04:55:37;3.00;;;2.80;;
3299;SDS011;1662;49.310;8.134;2023-05-07T04:58:03;3.00;;;2.77;;
3299;SDS011;1662;49.310;8.134;2023-05-07T05:00:29;2.90;;;2.70;;
3299;SDS011;1662;49.310;8.134;2023-05-07T05:02:55;3.30;;;3.10;;
3299;SDS011;1662;49.310;8.134;2023-05-07T05:05:21;2.90;;;2.80;;
3299;SDS011;1662;49.310;8.134;2023-05-07T05:07:46;2.87;;;2.73;;
3299;SDS011;1662;49.310;8.134;2023-05-07T05:10:12;2.50;;;2.40;;
3299;SDS011;1662;49.310;8.134;2023-05-07T05:12:38;2.73;;;2.63;;
3299;SDS011;1662;49.310;8.134;2023-05-07T05:15:03;3.10;;;2.90;;
3299;SDS011;1662;49.310;8.134;2023-05-07T05:17:30;2.97;;;2.73;;
3299;SDS011;1662;49.310;8.134;2023-05-07T05:19:56;2.90;;;2.80;;
3299;SDS011;1662;49.310;8.134;2023-05-07T05:22:21;2.90;;;2.70;;
3299;SDS011;1662;49.310;8.134;2023-05-07T05:24:49;3.13;;;2.93;;
3299;SDS011;1662;49.310;8.134;2023-05-07T05:27:15;3.23;;;2.60;;
3299;SDS011;1662;49.310;8.134;2023-05-07T05:29:40;2.90;;;2.70;;
3299;SDS011;1662;49.310;8.134;2023-05-07T05:32:06;2.90;;;2.70;;
3299;SDS011;1662;49.310;8.134;2023-05-07T05:34:31;2.53;;;2.43;;
3299;SDS011;1662;49.310;8.134;2023-05-07T05:36:58;3.40;;;3.20;;
3299;SDS011;1662;49.310;8.134;2023-05-07T05:39:24;3.23;;;2.97;;
3299;SDS011;1662;49.310;8.134;2023-05-07T05:41:52;3.67;;;2.90;;
3299;SDS011;1662;49.310;8.134;2023-05-07T05:44:18;3.07;;;2.97;;
3299;SDS011;1662;49.310;8.134;2023-05-07T05:46:45;2.87;;;2.70;;
3299;SDS011;1662;49.310;8.134;2023-05-07T05:49:11;4.00;;;3.03;;
3299;SDS011;1662;49.310;8.134;2023-05-07T05:51:37;2.73;;;2.63;;
3299;SDS011;1662;49.310;8.134;2023-05-07T05:54:02;3.07;;;2.90;;
3299;SDS011;1662;49.310;8.134;2023-05-07T05:56:28;2.80;;;2.60;;
3299;SDS011;1662;49.310;8.134;2023-05-07T05:58:53;3.63;;;3.43;;
3299;SDS011;1662;49.310;8.134;2023-05-07T06:01:19;2.70;;;2.53;;
3299;SDS011;1662;49.310;8.134;2023-05-07T06:03:45;3.07;;;2.93;;
3299;SDS011;1662;49.310;8.134;2023-05-07T06:06:10;3.17;;;2.93;;
3299;SDS011;1662;49.310;8.134;2023-05-07T06:08:36;3.50;;;3.33;;
3299;SDS011;1662;49.310;8.134;2023-05-07T06:11:01;3.53;;;3.33;;
3299;SDS011;1662;49.310;8.134;2023-05-07T06:13:28;3.03;;;2.93;;
3299;SDS011;1662;49.310;8.134;2023-05-07T06:15:53;3.53;;;3.33;;
3299;SDS011;1662;49.310;8.134;2023-05-07T06:18:19;3.47;;;3.17;;
3299;SDS011;1662;49.310;8.134;2023-05-07T06:20:44;3.23;;;3.03;;
3299;SDS011;1662;49.310;8.134;2023-05-07T06:23:10;2.80;;;2.60;;
3299;SDS011;1662;49.310;8.134;2023-05-07T06:25:36;2.93;;;2.70;;
3299;SDS011;1662;49.310;8.134;2023-05-07T06:28:01;3.20;;;2.90;;
3299;SDS011;1662;49.310;8.134;2023-05-07T06:30:27;2.93;;;2.73;;
3299;SDS011;1662;49.310;8.134;2023-05-07T06:32:52;2.90;;;2.80;;
3299;SDS011;1662;49.310;8.134;2023-05-07T06:35:18;2.63;;;2.53;;
3299;SDS011;1662;49.310;8.134;2023-05-07T06:37:44;3.70;;;3.40;;
3299;SDS011;1662;49.310;8.134;2023-05-07T06:40:10;3.53;;;3.10;;
3299;SDS011;1662;49.310;8.134;2023-05-07T06:42:36;2.63;;;2.53;;
3299;SDS011;1662;49.310;8.134;2023-05-07T06:45:02;3.07;;;2.87;;
3299;SDS011;1662;49.310;8.134;2023-05-07T06:47:28;3.00;;;2.90;;
3299;SDS011;1662;49.310;8.134;2023-05-07T06:49:53;3.17;;;2.97;;
3299;SDS011;1662;49.310;8.134;2023-05-07T06:52:19;3.63;;;3.33;;
3299;SDS011;1662;49.310;8.134;2023-05-07T06:54:45;3.57;;;3.37;;
3299;SDS011;1662;49.310;8.134;2023-05-07T06:57:10;3.10;;;3.00;;
3299;SDS011;1662;49.310;8.134;2023-05-07T06:59:36;3.23;;;3.03;;
3299;SDS011;1662;49.310;8.134;2023-05-07T07:02:02;4.00;;;3.60;;
3299;SDS011;1662;49.310;8.134;2023-05-07T07:04:30;3.97;;;3.77;;
3299;SDS011;1662;49.310;8.134;2023-05-07T07:06:55;3.77;;;3.47;;
3299;SDS011;1662;49.310;8.134;2023-05-07T07:09:22;3.87;;;3.63;;
3299;SDS011;1662;49.310;8.134;2023-05-07T07:11:47;3.53;;;3.37;;
3299;SDS011;1662;49.310;8.134;2023-05-07T07:14:13;3.43;;;3.23;;
3299;SDS011;1662;49.310;8.134;2023-05-07T07:16:39;4.27;;;4.07;;
3299;SDS011;1662;49.310;8.134;2023-05-07T07:19:05;3.90;;;3.70;;
3299;SDS011;1662;49.310;8.134;2023-05-07T07:21:30;3.40;;;3.20;;
3299;SDS011;1662;49.310;8.134;2023-05-07T07:23:56;3.80;;;3.60;;
3299;SDS011;1662;49.310;8.134;2023-05-07T07:26:22;5.03;;;4.00;;
3299;SDS011;1662;49.310;8.134;2023-05-07T07:28:48;3.70;;;3.50;;
3299;SDS011;1662;49.310;8.134;2023-05-07T07:31:13;3.60;;;3.40;;
3299;SDS011;1662;49.310;8.134;2023-05-07T07:33:40;3.47;;;3.27;;
3299;SDS011;1662;49.310;8.134;2023-05-07T07:36:06;3.80;;;3.60;;
3299;SDS011;1662;49.310;8.134;2023-05-07T07:38:32;5.20;;;3.80;;
3299;SDS011;1662;49.310;8.134;2023-05-07T07:40:58;4.00;;;3.80;;
3299;SDS011;1662;49.310;8.134;2023-05-07T07:43:25;2.97;;;2.87;;
3299;SDS011;1662;49.310;8.134;2023-05-07T07:45:50;3.63;;;3.37;;
3299;SDS011;1662;49.310;8.134;2023-05-07T07:48:16;3.67;;;3.30;;
3299;SDS011;1662;49.310;8.134;2023-05-07T07:50:41;4.23;;;4.00;;
3299;SDS011;1662;49.310;8.134;2023-05-07T07:53:07;3.30;;;3.20;;
3299;SDS011;1662;49.310;8.134;2023-05-07T07:55:37;3.70;;;3.50;;
3299;SDS011;1662;49.310;8.134;2023-05-07T07:58:06;5.10;;;4.80;;
3299;SDS011;1662;49.310;8.134;2023-05-07T08:00:31;4.77;;;4.37;;
3299;SDS011;1662;49.310;8.134;2023-05-07T08:02:57;3.50;;;3.40;;
3299;SDS011;1662;49.310;8.134;2023-05-07T08:05:25;4.10;;;3.80;;
3299;SDS011;1662;49.310;8.134;2023-05-07T08:07:51;3.83;;;3.63;;
3299;SDS011;1662;49.310;8.134;2023-05-07T08:10:19;3.97;;;3.77;;
3299;SDS011;1662;49.310;8.134;2023-05-07T08:12:48;4.00;;;3.80;;
3299;SDS011;1662;49.310;8.134;2023-05-07T08:15:14;4.10;;;3.80;;
3299;SDS011;1662;49.310;8.134;2023-05-07T08:17:40;3.93;;;3.73;;
3299;SDS011;1662;49.310;8.134;2023-05-07T08:20:08;4.00;;;3.80;;
3299;SDS011;1662;49.310;8.134;2023-05-07T08:22:34;4.03;;;3.73;;
3299;SDS011;1662;49.310;8.134;2023-05-07T08:25:03;3.50;;;3.20;;
3299;SDS011;1662;49.310;8.134;2023-05-07T08:27:29;4.23;;;3.97;;
3299;SDS011;1662;49.310;8.134;2023-05-07T08:29:54;3.57;;;3.27;;
3299;SDS011;1662;49.310;8.134;2023-05-07T08:32:20;3.40;;;3.20;;
3299;SDS011;1662;49.310;8.134;2023-05-07T08:34:46;3.73;;;3.43;;
3299;SDS011;1662;49.310;8.134;2023-05-07T08:37:12;3.60;;;3.50;;
3299;SDS011;1662;49.310;8.134;2023-05-07T08:39:38;3.67;;;3.50;;
3299;SDS011;1662;49.310;8.134;2023-05-07T08:42:04;4.17;;;3.87;;
3299;SDS011;1662;49.310;8.134;2023-05-07T08:44:32;3.80;;;3.60;;
3299;SDS011;1662;49.310;8.134;2023-05-07T08:47:00;3.80;;;3.50;;
3299;SDS011;1662;49.310;8.134;2023-05-07T08:49:27;3.70;;;3.53;;
3299;SDS011;1662;49.310;8.134;2023-05-07T08:51:53;4.10;;;3.80;;
3299;SDS011;1662;49.310;8.134;2023-05-07T08:54:20;3.47;;;3.30;;
3299;SDS011;1662;49.310;8.134;2023-05-07T08:56:46;4.13;;;3.93;;
3299;SDS011;1662;49.310;8.134;2023-05-07T08:59:12;5.53;;;4.70;;
3299;SDS011;1662;49.310;8.134;2023-05-07T09:01:38;4.23;;;4.03;;
3299;SDS011;1662;49.310;8.134;2023-05-07T09:04:04;4.20;;;3.90;;
3299;SDS011;1662;49.310;8.134;2023-05-07T09:06:31;4.63;;;4.30;;
3299;SDS011;1662;49.310;8.134;2023-05-07T09:08:58;3.80;;;3.70;;
3299;SDS011;1662;49.310;8.134;2023-05-07T09:11:26;3.80;;;3.60;;
3299;SDS011;1662;49.310;8.134;2023-05-07T09:13:55;6.53;;;4.03;;
3299;SDS011;1662;49.310;8.134;2023-05-07T09:16:24;4.33;;;4.10;;
3299;SDS011;1662;49.310;8.134;2023-05-07T09:18:51;4.60;;;4.40;;
3299;SDS011;1662;49.310;8.134;2023-05-07T09:21:22;3.27;;;3.17;;
3299;SDS011;1662;49.310;8.134;2023-05-07T09:23:51;4.10;;;3.90;;
3299;SDS011;1662;49.310;8.134;2023-05-07T09:26:18;4.43;;;4.03;;
3299;SDS011;1662;49.310;8.134;2023-05-07T09:28:46;4.10;;;3.60;;
3299;SDS011;1662;49.310;8.134;2023-05-07T09:31:12;4.10;;;3.90;;
3299;SDS011;1662;49.310;8.134;2023-05-07T09:33:40;4.33;;;4.03;;
3299;SDS011;1662;49.310;8.134;2023-05-07T09:36:06;4.10;;;3.90;;
3299;SDS011;1662;49.310;8.134;2023-05-07T09:38:34;4.73;;;4.50;;
3299;SDS011;1662;49.310;8.134;2023-05-07T09:41:05;4.93;;;4.70;;
3299;SDS011;1662;49.310;8.134;2023-05-07T09:43:37;5.23;;;4.60;;
3299;SDS011;1662;49.310;8.134;2023-05-07T09:46:07;4.30;;;4.10;;
3299;SDS011;1662;49.310;8.134;2023-05-07T09:48:41;4.60;;;4.30;;
3299;SDS011;1662;49.310;8.134;2023-05-07T09:51:15;4.37;;;4.17;;
3299;SDS011;1662;49.310;8.134;2023-05-07T09:53:52;4.43;;;4.23;;
3299;SDS011;1662;49.310;8.134;2023-05-07T09:56:18;5.47;;;5.20;;
3299;SDS011;1662;49.310;8.134;2023-05-07T09:58:45;5.10;;;4.80;;
3299;SDS011;1662;49.310;8.134;2023-05-07T10:01:12;5.23;;;5.03;;
3299;SDS011;1662;49.310;8.134;2023-05-07T10:03:41;4.20;;;4.07;;
3299;SDS011;1662;49.310;8.134;2023-05-07T10:06:09;4.67;;;4.37;;
3299;SDS011;1662;49.310;8.134;2023-05-07T10:08:35;5.40;;;5.10;;
3299;SDS011;1662;49.310;8.134;2023-05-07T10:11:02;4.40;;;4.20;;
3299;SDS011;1662;49.310;8.134;2023-05-07T10:13:29;5.37;;;4.90;;
3299;SDS011;1662;49.310;8.134;2023-05-07T10:15:57;4.60;;;4.40;;
3299;SDS011;1662;49.310;8.134;2023-05-07T10:18:24;5.00;;;4.80;;
3299;SDS011;1662;49.310;8.134;2023-05-07T10:20:54;7.50;;;6.93;;
3299;SDS011;1662;49.310;8.134;2023-05-07T10:23:27;4.90;;;4.70;;
3299;SDS011;1662;49.310;8.134;2023-05-07T10:25:53;5.60;;;5.30;;
3299;SDS011;1662;49.310;8.134;2023-05-07T10:28:21;5.33;;;4.93;;
3299;SDS011;1662;49.310;8.134;2023-05-07T10:33:40;4.67;;;4.47;;
3299;SDS011;1662;49.310;8.134;2023-05-07T10:36:08;4.80;;;4.50;;
3299;SDS011;1662;49.310;8.134;2023-05-07T10:38:34;4.87;;;4.57;;
3299;SDS011;1662;49.310;8.134;2023-05-07T10:41:00;6.00;;;5.50;;
3299;SDS011;1662;49.310;8.134;2023-05-07T10:43:30;7.00;;;6.60;;
3299;SDS011;1662;49.310;8.134;2023-05-07T10:46:19;6.23;;;5.83;;
3299;SDS011;1662;49.310;8.134;2023-05-07T10:51:26;5.57;;;5.27;;
3299;SDS011;1662;49.310;8.134;2023-05-07T10:56:40;6.40;;;6.00;;
3299;SDS011;1662;49.310;8.134;2023-05-07T11:02:03;5.80;;;5.30;;
3299;SDS011;1662;49.310;8.134;2023-05-07T11:04:31;6.17;;;5.77;;
3299;SDS011;1662;49.310;8.134;2023-05-07T11:12:16;6.20;;;5.80;;
3299;SDS011;1662;49.310;8.134;2023-05-07T11:15:06;7.50;;;6.90;;
3299;SDS011;1662;49.310;8.134;2023-05-07T11:20:21;6.97;;;6.57;;
3299;SDS011;1662;49.310;8.134;2023-05-07T11:28:46;6.10;;;5.70;;
3299;SDS011;1662;49.310;8.134;2023-05-07T11:31:12;6.43;;;6.10;;
3299;SDS011;1662;49.310;8.134;2023-05-07T11:33:38;6.20;;;6.00;;
3299;SDS011;1662;49.310;8.134;2023-05-07T11:36:04;6.20;;;5.90;;
3299;SDS011;1662;49.310;8.134;2023-05-07T11:38:30;7.60;;;7.17;;
3299;SDS011;1662;49.310;8.134;2023-05-07T11:41:00;7.13;;;6.83;;
3299;SDS011;1662;49.310;8.134;2023-05-07T11:43:26;7.20;;;6.80;;
3299;SDS011;1662;49.310;8.134;2023-05-07T11:45:55;6.90;;;6.43;;
3299;SDS011;1662;49.310;8.134;2023-05-07T11:48:34;6.33;;;6.13;;
3299;SDS011;1662;49.310;8.134;2023-05-07T11:53:36;6.90;;;6.50;;
3299;SDS011;1662;49.310;8.134;2023-05-07T11:56:08;7.43;;;7.10;;
3299;SDS011;1662;49.310;8.134;2023-05-07T11:58:39;10.20;;;9.80;;
3299;SDS011;1662;49.310;8.134;2023-05-07T12:01:17;6.30;;;6.00;;
3299;SDS011;1662;49.310;8.134;2023-05-07T12:03:45;6.90;;;6.60;;
3299;SDS011;1662;49.310;8.134;2023-05-07T12:06:11;12.63;;;12.13;;
3299;SDS011;1662;49.310;8.134;2023-05-07T12:08:38;5.90;;;5.60;;
3299;SDS011;1662;49.310;8.134;2023-05-07T12:11:09;10.50;;;10.10;;
3299;SDS011;1662;49.310;8.134;2023-05-07T12:13:38;8.77;;;8.27;;
3299;SDS011;1662;49.310;8.134;2023-05-07T12:16:03;5.87;;;5.67;;
3299;SDS011;1662;49.310;8.134;2023-05-07T12:18:30;6.83;;;6.43;;
3299;SDS011;1662;49.310;8.134;2023-05-07T12:20:59;6.80;;;6.37;;
3299;SDS011;1662;49.310;8.134;2023-05-07T12:23:25;6.90;;;6.50;;
3299;SDS011;1662;49.310;8.134;2023-05-07T12:25:51;7.07;;;6.67;;
3299;SDS011;1662;49.310;8.134;2023-05-07T12:28:17;8.23;;;7.83;;
3299;SDS011;1662;49.310;8.134;2023-05-07T12:30:43;7.23;;;6.93;;
3299;SDS011;1662;49.310;8.134;2023-05-07T12:33:11;6.60;;;6.23;;
3299;SDS011;1662;49.310;8.134;2023-05-07T12:35:37;7.53;;;7.13;;
3299;SDS011;1662;49.310;8.134;2023-05-07T12:38:08;6.73;;;6.40;;
3299;SDS011;1662;49.310;8.134;2023-05-07T12:40:41;6.87;;;6.47;;
3299;SDS011;1662;49.310;8.134;2023-05-07T12:43:20;7.47;;;7.17;;
3299;SDS011;1662;49.310;8.134;2023-05-07T12:45:49;7.47;;;6.77;;
3299;SDS011;1662;49.310;8.134;2023-05-07T12:48:16;6.30;;;6.10;;
3299;SDS011;1662;49.310;8.134;2023-05-07T12:50:42;7.03;;;6.63;;
3299;SDS011;1662;49.310;8.134;2023-05-07T12:53:09;7.10;;;6.70;;
3299;SDS011;1662;49.310;8.134;2023-05-07T12:55:47;7.87;;;7.30;;
3299;SDS011;1662;49.310;8.134;2023-05-07T12:58:20;7.20;;;6.60;;
3299;SDS011;1662;49.310;8.134;2023-05-07T13:00:50;6.63;;;6.33;;
3299;SDS011;1662;49.310;8.134;2023-05-07T13:05:51;6.60;;;6.30;;
3299;SDS011;1662;49.310;8.134;2023-05-07T13:08:27;6.17;;;5.97;;
3299;SDS011;1662;49.310;8.134;2023-05-07T13:10:52;6.17;;;5.90;;
3299;SDS011;1662;49.310;8.134;2023-05-07T13:13:18;7.40;;;7.00;;
3299;SDS011;1662;49.310;8.134;2023-05-07T13:15:45;7.17;;;6.87;;
3299;SDS011;1662;49.310;8.134;2023-05-07T13:18:11;6.60;;;6.10;;
3299;SDS011;1662;49.310;8.134;2023-05-07T13:20:40;7.00;;;6.67;;
3299;SDS011;1662;49.310;8.134;2023-05-07T13:23:20;7.37;;;7.07;;
3299;SDS011;1662;49.310;8.134;2023-05-07T13:25:47;6.97;;;6.70;;
3299;SDS011;1662;49.310;8.134;2023-05-07T13:28:13;7.30;;;6.70;;
3299;SDS011;1662;49.310;8.134;2023-05-07T13:30:40;6.87;;;6.67;;
3299;SDS011;1662;49.310;8.134;2023-05-07T13:33:06;6.63;;;6.33;;
3299;SDS011;1662;49.310;8.134;2023-05-07T13:35:31;7.13;;;6.83;;
3299;SDS011;1662;49.310;8.134;2023-05-07T13:37:57;7.10;;;6.80;;
3299;SDS011;1662;49.310;8.134;2023-05-07T13:40:23;7.77;;;7.37;;
3299;SDS011;1662;49.310;8.134;2023-05-07T13:42:49;7.77;;;7.33;;
3299;SDS011;1662;49.310;8.134;2023-05-07T13:45:16;7.33;;;6.93;;
3299;SDS011;1662;49.310;8.134;2023-05-07T13:47:42;7.90;;;7.40;;
3299;SDS011;1662;49.310;8.134;2023-05-07T13:50:09;7.10;;;6.80;;
3299;SDS011;1662;49.310;8.134;2023-05-07T13:52:36;8.03;;;7.53;;
3299;SDS011;1662;49.310;8.134;2023-05-07T13:55:04;7.00;;;6.70;;
3299;SDS011;1662;49.310;8.134;2023-05-07T13:57:30;7.40;;;7.00;;
3299;SDS011;1662;49.310;8.134;2023-05-07T13:59:56;8.13;;;7.03;;
3299;SDS011;1662;49.310;8.134;2023-05-07T14:02:21;7.90;;;7.30;;
3299;SDS011;1662;49.310;8.134;2023-05-07T14:04:47;7.63;;;7.23;;
3299;SDS011;1662;49.310;8.134;2023-05-07T14:07:12;6.93;;;6.63;;
3299;SDS011;1662;49.310;8.134;2023-05-07T14:09:38;6.83;;;6.40;;
3299;SDS011;1662;49.310;8.134;2023-05-07T14:12:04;6.23;;;5.93;;
3299;SDS011;1662;49.310;8.134;2023-05-07T14:14:30;5.80;;;5.60;;
3299;SDS011;1662;49.310;8.134;2023-05-07T14:16:55;5.60;;;5.40;;
3299;SDS011;1662;49.310;8.134;2023-05-07T14:19:22;6.90;;;6.20;;
3299;SDS011;1662;49.310;8.134;2023-05-07T14:21:50;6.00;;;5.70;;
3299;SDS011;1662;49.310;8.134;2023-05-07T14:24:15;5.90;;;5.60;;
3299;SDS011;1662;49.310;8.134;2023-05-07T14:26:41;6.30;;;6.00;;
3299;SDS011;1662;49.310;8.134;2023-05-07T14:29:07;5.57;;;5.27;;
3299;SDS011;1662;49.310;8.134;2023-05-07T14:31:32;5.10;;;4.90;;
3299;SDS011;1662;49.310;8.134;2023-05-07T14:33:58;8.23;;;5.77;;
3299;SDS011;1662;49.310;8.134;2023-05-07T14:36:24;5.30;;;5.10;;
3299;SDS011;1662;49.310;8.134;2023-05-07T14:38:51;5.63;;;5.23;;
3299;SDS011;1662;49.310;8.134;2023-05-07T14:41:19;5.27;;;4.87;;
3299;SDS011;1662;49.310;8.134;2023-05-07T14:43:45;5.50;;;5.07;;
3299;SDS011;1662;49.310;8.134;2023-05-07T14:46:15;7.53;;;5.77;;
3299;SDS011;1662;49.310;8.134;2023-05-07T14:48:42;6.20;;;5.80;;
3299;SDS011;1662;49.310;8.134;2023-05-07T14:51:09;5.87;;;5.33;;
3299;SDS011;1662;49.310;8.134;2023-05-07T14:53:35;5.47;;;5.23;;
3299;SDS011;1662;49.310;8.134;2023-05-07T14:56:01;5.13;;;4.93;;
3299;SDS011;1662;49.310;8.134;2023-05-07T14:58:30;4.33;;;4.13;;
3299;SDS011;1662;49.310;8.134;2023-05-07T15:00:55;3.80;;;3.60;;
3299;SDS011;1662;49.310;8.134;2023-05-07T15:03:21;3.80;;;3.37;;
3299;SDS011;1662;49.310;8.134;2023-05-07T15:05:47;4.30;;;4.10;;
3299;SDS011;1662;49.310;8.134;2023-05-07T15:08:12;5.47;;;5.03;;
3299;SDS011;1662;49.310;8.134;2023-05-07T15:10:38;4.90;;;4.60;;
3299;SDS011;1662;49.310;8.134;2023-05-07T15:13:07;7.47;;;5.47;;
3299;SDS011;1662;49.310;8.134;2023-05-07T15:15:34;10.40;;;6.40;;
3299;SDS011;1662;49.310;8.134;2023-05-07T15:17:59;5.77;;;5.20;;
3299;SDS011;1662;49.310;8.134;2023-05-07T15:20:25;11.33;;;9.90;;
3299;SDS011;1662;49.310;8.134;2023-05-07T15:22:51;12.27;;;8.40;;
3299;SDS011;1662;49.310;8.134;2023-05-07T15:25:17;6.20;;;5.70;;
3299;SDS011;1662;49.310;8.134;2023-05-07T15:27:45;8.03;;;6.13;;
3299;SDS011;1662;49.310;8.134;2023-05-07T15:30:11;5.20;;;4.80;;
3299;SDS011;1662;49.310;8.134;2023-05-07T15:32:37;5.57;;;5.00;;
3299;SDS011;1662;49.310;8.134;2023-05-07T15:35:06;8.13;;;4.80;;
3299;SDS011;1662;49.310;8.134;2023-05-07T15:37:32;6.20;;;4.90;;
3299;SDS011;1662;49.310;8.134;2023-05-07T15:39:57;4.73;;;4.33;;
3299;SDS011;1662;49.310;8.134;2023-05-07T15:42:23;4.20;;;3.90;;
3299;SDS011;1662;49.310;8.134;2023-05-07T15:44:49;3.50;;;3.20;;